sensor_id;sensor_type;location;lat;lon;timestamp;pressure;altitude;pressure_sealevel;temperature;humidity
7930;BME280;4010;42.698;23.124;2023-12-29T00:01:29;118349.16;;;-140.64;100.00
7930;BME280;4010;42.698;23.124;2023-12-29T00:03:56;118349.16;;;-140.64;100.00
7930;BME280;4010;42.698;23.124;2023-12-29T00:06:22;118349.16;;;-140.64;100.00
7930;BME280;4010;42.698;23.124;2023-12-29T00:08:49;118349.16;;;-140.64;100.00
7930;BME280;4010;42.698;23.124;2023-12-29T00:11:17;118349.16;;;-140.64;100.00
7930;BME280;4010;42.698;23.124;2023-12-29T00:13:43;118349.16;;;-140.64;100.00
7930;BME280;4010;42.698;23.124;2023-12-29T00:16:11;118349.16;;;-140.64;100.00
7930;BME280;4010;42.698;23.124;2023-12-29T00:18:38;118349.16;;;-140.64;100.00
7930;BME280;4010;42.698;23.124;2023-12-29T00:21:05;118349.16;;;-140.64;100.00
7930;BME280;4010;42.698;23.124;2023-12-29T00:23:32;118349.16;;;-140.64;100.00
7930;BME280;4010;42.698;23.124;2023-12-29T00:25:59;118349.16;;;-140.64;100.00
7930;BME280;4010;42.698;23.124;2023-12-29T00:28:26;118349.16;;;-140.64;100.00
7930;BME280;4010;42.698;23.124;2023-12-29T00:30:52;118349.16;;;-140.64;100.00
7930;BME280;4010;42.698;23.124;2023-12-29T00:33:20;118349.16;;;-140.64;100.00
7930;BME280;4010;42.698;23.124;2023-12-29T00:35:47;118349.16;;;-140.64;100.00
7930;BME280;4010;42.698;23.124;2023-12-29T00:38:14;118349.16;;;-140.64;100.00
7930;BME280;4010;42.698;23.124;2023-12-29T00:40:40;118349.16;;;-140.64;100.00
7930;BME280;4010;42.698;23.124;2023-12-29T00:43:07;118349.16;;;-140.64;100.00
7930;BME280;4010;42.698;23.124;2023-12-29T00:45:34;118349.16;;;-140.64;100.00
7930;BME280;4010;42.698;23.124;2023-12-29T00:48:01;118349.16;;;-140.64;100.00
7930;BME280;4010;42.698;23.124;2023-12-29T00:50:29;118349.16;;;-140.64;100.00
7930;BME280;4010;42.698;23.124;2023-12-29T00:52:56;118349.16;;;-140.64;100.00
7930;BME280;4010;42.698;23.124;2023-12-29T00:55:23;118349.16;;;-140.64;100.00
7930;BME280;4010;42.698;23.124;2023-12-29T00:57:49;118349.16;;;-140.64;100.00
7930;BME280;4010;42.698;23.124;2023-12-29T01:00:16;118349.16;;;-140.64;100.00
7930;BME280;4010;42.698;23.124;2023-12-29T01:02:43;118349.16;;;-140.64;100.00
7930;BME280;4010;42.698;23.124;2023-12-29T01:05:14;118349.16;;;-140.64;100.00
7930;BME280;4010;42.698;23.124;2023-12-29T01:07:42;118349.16;;;-140.64;100.00
7930;BME280;4010;42.698;23.124;2023-12-29T01:10:09;118349.16;;;-140.64;100.00
7930;BME280;4010;42.698;23.124;2023-12-29T01:12:36;118349.16;;;-140.64;100.00
7930;BME280;4010;42.698;23.124;2023-12-29T01:15:03;118349.16;;;-140.64;100.00
7930;BME280;4010;42.698;23.124;2023-12-29T01:17:30;118349.16;;;-140.64;100.00
7930;BME280;4010;42.698;23.124;2023-12-29T01:19:57;118349.16;;;-140.64;100.00
7930;BME280;4010;42.698;23.124;2023-12-29T01:22:23;118349.16;;;-140.64;100.00
7930;BME280;4010;42.698;23.124;2023-12-29T01:24:51;118349.16;;;-140.64;100.00
7930;BME280;4010;42.698;23.124;2023-12-29T01:27:18;118349.16;;;-140.64;100.00
7930;BME280;4010;42.698;23.124;2023-12-29T01:29:45;118349.16;;;-140.64;100.00
7930;BME280;4010;42.698;23.124;2023-12-29T01:32:11;118349.16;;;-140.64;100.00
7930;BME280;4010;42.698;23.124;2023-12-29T01:34:38;118349.16;;;-140.64;100.00
7930;BME280;4010;42.698;23.124;2023-12-29T01:37:05;118349.16;;;-140.64;100.00
7930;BME280;4010;42.698;23.124;2023-12-29T01:39:33;118349.16;;;-140.64;100.00
7930;BME280;4010;42.698;23.124;2023-12-29T01:42:01;118349.16;;;-140.64;100.00
7930;BME280;4010;42.698;23.124;2023-12-29T01:44:28;118349.16;;;-140.64;100.00
7930;BME280;4010;42.698;23.124;2023-12-29T01:46:57;118349.16;;;-140.64;100.00
7930;BME280;4010;42.698;23.124;2023-12-29T01:49:25;118349.16;;;-140.64;100.00
7930;BME280;4010;42.698;23.124;2023-12-29T01:51:54;118349.16;;;-140.64;100.00
7930;BME280;4010;42.698;23.124;2023-12-29T01:54:23;118349.16;;;-140.64;100.00
7930;BME280;4010;42.698;23.124;2023-12-29T01:56:51;118349.16;;;-140.64;100.00
7930;BME280;4010;42.698;23.124;2023-12-29T01:59:22;118349.16;;;-140.64;100.00
7930;BME280;4010;42.698;23.124;2023-12-29T02:01:49;118349.16;;;-140.64;100.00
7930;BME280;4010;42.698;23.124;2023-12-29T02:04:17;118349.16;;;-140.64;100.00
7930;BME280;4010;42.698;23.124;2023-12-29T02:06:44;118349.16;;;-140.64;100.00
7930;BME280;4010;42.698;23.124;2023-12-29T02:09:11;118349.16;;;-140.64;100.00
7930;BME280;4010;42.698;23.124;2023-12-29T02:11:38;118349.16;;;-140.64;100.00
7930;BME280;4010;42.698;23.124;2023-12-29T02:14:06;118349.16;;;-140.64;100.00
7930;BME280;4010;42.698;23.124;2023-12-29T02:16:42;118349.16;;;-140.64;100.00
7930;BME280;4010;42.698;23.124;2023-12-29T02:19:25;118349.16;;;-140.64;100.00
7930;BME280;4010;42.698;23.124;2023-12-29T02:21:55;118349.16;;;-140.64;100.00
7930;BME280;4010;42.698;23.124;2023-12-29T02:24:22;118349.16;;;-140.64;100.00
7930;BME280;4010;42.698;23.124;2023-12-29T02:27:04;118349.16;;;-140.64;100.00
7930;BME280;4010;42.698;23.124;2023-12-29T02:29:32;118349.16;;;-140.64;100.00
7930;BME280;4010;42.698;23.124;2023-12-29T02:32:00;118349.16;;;-140.64;100.00
7930;BME280;4010;42.698;23.124;2023-12-29T02:34:32;118349.16;;;-140.64;100.00
7930;BME280;4010;42.698;23.124;2023-12-29T02:36:59;118349.16;;;-140.64;100.00
7930;BME280;4010;42.698;23.124;2023-12-29T02:39:26;118349.16;;;-140.64;100.00
7930;BME280;4010;42.698;23.124;2023-12-29T02:41:55;118349.16;;;-140.64;100.00
7930;BME280;4010;42.698;23.124;2023-12-29T02:44:21;118349.16;;;-140.64;100.00
7930;BME280;4010;42.698;23.124;2023-12-29T02:46:48;118349.16;;;-140.64;100.00
7930;BME280;4010;42.698;23.124;2023-12-29T02:49:16;118349.16;;;-140.64;100.00
7930;BME280;4010;42.698;23.124;2023-12-29T02:51:42;118349.16;;;-140.64;100.00
7930;BME280;4010;42.698;23.124;2023-12-29T02:54:11;118349.16;;;-140.64;100.00
7930;BME280;4010;42.698;23.124;2023-12-29T02:56:38;118349.16;;;-140.64;100.00
7930;BME280;4010;42.698;23.124;2023-12-29T02:59:06;118349.16;;;-140.64;100.00
7930;BME280;4010;42.698;23.124;2023-12-29T03:01:33;118349.16;;;-140.64;100.00
7930;BME280;4010;42.698;23.124;2023-12-29T03:04:00;118349.16;;;-140.64;100.00
7930;BME280;4010;42.698;23.124;2023-12-29T03:06:27;118349.16;;;-140.64;100.00
7930;BME280;4010;42.698;23.124;2023-12-29T03:08:54;118349.16;;;-140.64;100.00
7930;BME280;4010;42.698;23.124;2023-12-29T03:11:20;118349.16;;;-140.64;100.00
7930;BME280;4010;42.698;23.124;2023-12-29T03:13:47;118349.16;;;-140.64;100.00
7930;BME280;4010;42.698;23.124;2023-12-29T03:16:15;118349.16;;;-140.64;100.00
7930;BME280;4010;42.698;23.124;2023-12-29T03:18:42;118349.16;;;-140.64;100.00
7930;BME280;4010;42.698;23.124;2023-12-29T03:21:08;118349.16;;;-140.64;100.00
7930;BME280;4010;42.698;23.124;2023-12-29T03:23:35;118349.16;;;-140.64;100.00
7930;BME280;4010;42.698;23.124;2023-12-29T03:26:02;118349.16;;;-140.64;100.00
7930;BME280;4010;42.698;23.124;2023-12-29T03:28:29;118349.16;;;-140.64;100.00
7930;BME280;4010;42.698;23.124;2023-12-29T03:30:56;118349.16;;;-140.64;100.00
7930;BME280;4010;42.698;23.124;2023-12-29T03:33:24;118349.16;;;-140.64;100.00
7930;BME280;4010;42.698;23.124;2023-12-29T03:35:50;118349.16;;;-140.64;100.00
7930;BME280;4010;42.698;23.124;2023-12-29T03:38:17;118349.16;;;-140.64;100.00
7930;BME280;4010;42.698;23.124;2023-12-29T03:40:44;118349.16;;;-140.64;100.00
7930;BME280;4010;42.698;23.124;2023-12-29T03:43:10;118349.16;;;-140.64;100.00
7930;BME280;4010;42.698;23.124;2023-12-29T03:45:37;118349.16;;;-140.64;100.00
7930;BME280;4010;42.698;23.124;2023-12-29T03:48:04;118349.16;;;-140.64;100.00
7930;BME280;4010;42.698;23.124;2023-12-29T03:50:32;118349.16;;;-140.64;100.00
7930;BME280;4010;42.698;23.124;2023-12-29T03:52:59;118349.16;;;-140.64;100.00
7930;BME280;4010;42.698;23.124;2023-12-29T03:55:26;118349.16;;;-140.64;100.00
7930;BME280;4010;42.698;23.124;2023-12-29T03:57:52;118349.16;;;-140.64;100.00
7930;BME280;4010;42.698;23.124;2023-12-29T04:00:19;118349.16;;;-140.64;100.00
7930;BME280;4010;42.698;23.124;2023-12-29T04:02:46;118349.16;;;-140.64;100.00
7930;BME280;4010;42.698;23.124;2023-12-29T04:05:13;118349.16;;;-140.64;100.00
7930;BME280;4010;42.698;23.124;2023-12-29T04:07:41;118349.16;;;-140.64;100.00
7930;BME280;4010;42.698;23.124;2023-12-29T04:10:07;118349.16;;;-140.64;100.00
7930;BME280;4010;42.698;23.124;2023-12-29T04:12:34;118349.16;;;-140.64;100.00
7930;BME280;4010;42.698;23.124;2023-12-29T04:15:01;118349.16;;;-140.64;100.00
7930;BME280;4010;42.698;23.124;2023-12-29T04:17:28;118349.16;;;-140.64;100.00
7930;BME280;4010;42.698;23.124;2023-12-29T04:19:55;118349.16;;;-140.64;100.00
7930;BME280;4010;42.698;23.124;2023-12-29T04:22:22;118349.16;;;-140.64;100.00
7930;BME280;4010;42.698;23.124;2023-12-29T04:24:50;118349.16;;;-140.64;100.00
7930;BME280;4010;42.698;23.124;2023-12-29T04:27:17;118349.16;;;-140.64;100.00
7930;BME280;4010;42.698;23.124;2023-12-29T04:29:44;118349.16;;;-140.64;100.00
7930;BME280;4010;42.698;23.124;2023-12-29T04:32:11;118349.16;;;-140.64;100.00
7930;BME280;4010;42.698;23.124;2023-12-29T04:34:38;118349.16;;;-140.64;100.00
7930;BME280;4010;42.698;23.124;2023-12-29T04:37:04;118349.16;;;-140.64;100.00
7930;BME280;4010;42.698;23.124;2023-12-29T04:39:31;118349.16;;;-140.64;100.00
7930;BME280;4010;42.698;23.124;2023-12-29T04:41:59;118349.16;;;-140.64;100.00
7930;BME280;4010;42.698;23.124;2023-12-29T04:44:26;118349.16;;;-140.64;100.00
7930;BME280;4010;42.698;23.124;2023-12-29T04:46:52;118349.16;;;-140.64;100.00
7930;BME280;4010;42.698;23.124;2023-12-29T04:49:19;118349.16;;;-140.64;100.00
7930;BME280;4010;42.698;23.124;2023-12-29T04:51:46;118349.16;;;-140.64;100.00
7930;BME280;4010;42.698;23.124;2023-12-29T04:54:13;118349.16;;;-140.64;100.00
7930;BME280;4010;42.698;23.124;2023-12-29T04:56:40;118349.16;;;-140.64;100.00
7930;BME280;4010;42.698;23.124;2023-12-29T04:59:08;118349.16;;;-140.64;100.00
7930;BME280;4010;42.698;23.124;2023-12-29T05:01:35;118349.16;;;-140.64;100.00
7930;BME280;4010;42.698;23.124;2023-12-29T05:04:02;118349.16;;;-140.64;100.00
7930;BME280;4010;42.698;23.124;2023-12-29T05:06:28;118349.16;;;-140.64;100.00
7930;BME280;4010;42.698;23.124;2023-12-29T05:08:55;118349.16;;;-140.64;100.00
7930;BME280;4010;42.698;23.124;2023-12-29T05:11:21;118349.16;;;-140.64;100.00
7930;BME280;4010;42.698;23.124;2023-12-29T05:13:48;118349.16;;;-140.64;100.00
7930;BME280;4010;42.698;23.124;2023-12-29T05:16:16;118349.16;;;-140.64;100.00
7930;BME280;4010;42.698;23.124;2023-12-29T05:18:43;118349.16;;;-140.64;100.00
7930;BME280;4010;42.698;23.124;2023-12-29T05:21:14;118349.16;;;-140.64;100.00
7930;BME280;4010;42.698;23.124;2023-12-29T05:23:41;118349.16;;;-140.64;100.00
7930;BME280;4010;42.698;23.124;2023-12-29T05:26:07;118349.16;;;-140.64;100.00
7930;BME280;4010;42.698;23.124;2023-12-29T05:28:34;118349.16;;;-140.64;100.00
7930;BME280;4010;42.698;23.124;2023-12-29T05:31:01;118349.16;;;-140.64;100.00
7930;BME280;4010;42.698;23.124;2023-12-29T05:33:30;118349.16;;;-140.64;100.00
7930;BME280;4010;42.698;23.124;2023-12-29T05:35:57;118349.16;;;-140.64;100.00
7930;BME280;4010;42.698;23.124;2023-12-29T05:38:23;118349.16;;;-140.64;100.00
7930;BME280;4010;42.698;23.124;2023-12-29T05:40:50;118349.16;;;-140.64;100.00
7930;BME280;4010;42.698;23.124;2023-12-29T05:43:18;118349.16;;;-140.64;100.00
7930;BME280;4010;42.698;23.124;2023-12-29T05:45:45;118349.16;;;-140.64;100.00
7930;BME280;4010;42.698;23.124;2023-12-29T05:48:11;118349.16;;;-140.64;100.00
7930;BME280;4010;42.698;23.124;2023-12-29T05:50:39;118349.16;;;-140.64;100.00
7930;BME280;4010;42.698;23.124;2023-12-29T05:53:06;118349.16;;;-140.64;100.00
7930;BME280;4010;42.698;23.124;2023-12-29T05:55:33;118349.16;;;-140.64;100.00
7930;BME280;4010;42.698;23.124;2023-12-29T05:58:00;118349.16;;;-140.64;100.00
7930;BME280;4010;42.698;23.124;2023-12-29T06:00:26;118349.16;;;-140.64;100.00
7930;BME280;4010;42.698;23.124;2023-12-29T06:02:53;118349.16;;;-140.64;100.00
7930;BME280;4010;42.698;23.124;2023-12-29T06:05:20;118349.16;;;-140.64;100.00
7930;BME280;4010;42.698;23.124;2023-12-29T06:07:48;118349.16;;;-140.64;100.00
7930;BME280;4010;42.698;23.124;2023-12-29T06:10:15;118349.16;;;-140.64;100.00
7930;BME280;4010;42.698;23.124;2023-12-29T06:12:41;118349.16;;;-140.64;100.00
7930;BME280;4010;42.698;23.124;2023-12-29T06:15:09;118349.16;;;-140.64;100.00
7930;BME280;4010;42.698;23.124;2023-12-29T06:17:35;118349.16;;;-140.64;100.00
7930;BME280;4010;42.698;23.124;2023-12-29T06:20:02;118349.16;;;-140.64;100.00
7930;BME280;4010;42.698;23.124;2023-12-29T06:22:31;118349.16;;;-140.64;100.00
7930;BME280;4010;42.698;23.124;2023-12-29T06:24:59;118349.16;;;-140.64;100.00
7930;BME280;4010;42.698;23.124;2023-12-29T06:27:26;118349.16;;;-140.64;100.00
7930;BME280;4010;42.698;23.124;2023-12-29T06:29:53;118349.16;;;-140.64;100.00
7930;BME280;4010;42.698;23.124;2023-12-29T06:32:20;118349.16;;;-140.64;100.00
7930;BME280;4010;42.698;23.124;2023-12-29T06:34:47;118349.16;;;-140.64;100.00
7930;BME280;4010;42.698;23.124;2023-12-29T06:37:14;118349.16;;;-140.64;100.00
7930;BME280;4010;42.698;23.124;2023-12-29T06:39:40;118349.16;;;-140.64;100.00
7930;BME280;4010;42.698;23.124;2023-12-29T06:42:09;118349.16;;;-140.64;100.00
7930;BME280;4010;42.698;23.124;2023-12-29T06:44:35;118349.16;;;-140.64;100.00
7930;BME280;4010;42.698;23.124;2023-12-29T06:47:02;118349.16;;;-140.64;100.00
7930;BME280;4010;42.698;23.124;2023-12-29T06:49:31;118349.16;;;-140.64;100.00
7930;BME280;4010;42.698;23.124;2023-12-29T06:51:57;118349.16;;;-140.64;100.00
7930;BME280;4010;42.698;23.124;2023-12-29T06:54:24;118349.16;;;-140.64;100.00
7930;BME280;4010;42.698;23.124;2023-12-29T06:56:51;118349.16;;;-140.64;100.00
7930;BME280;4010;42.698;23.124;2023-12-29T06:59:19;118349.16;;;-140.64;100.00
7930;BME280;4010;42.698;23.124;2023-12-29T07:01:46;118349.16;;;-140.64;100.00
7930;BME280;4010;42.698;23.124;2023-12-29T07:04:13;118349.16;;;-140.64;100.00
7930;BME280;4010;42.698;23.124;2023-12-29T07:06:40;118349.16;;;-140.64;100.00
7930;BME280;4010;42.698;23.124;2023-12-29T07:09:07;118349.16;;;-140.64;100.00
7930;BME280;4010;42.698;23.124;2023-12-29T07:11:35;118349.16;;;-140.64;100.00
7930;BME280;4010;42.698;23.124;2023-12-29T07:14:02;118349.16;;;-140.64;100.00
7930;BME280;4010;42.698;23.124;2023-12-29T07:16:30;118349.16;;;-140.64;100.00
7930;BME280;4010;42.698;23.124;2023-12-29T07:18:56;118349.16;;;-140.64;100.00
7930;BME280;4010;42.698;23.124;2023-12-29T07:21:23;118349.16;;;-140.64;100.00
7930;BME280;4010;42.698;23.124;2023-12-29T07:23:50;118349.16;;;-140.64;100.00
7930;BME280;4010;42.698;23.124;2023-12-29T07:26:17;118349.16;;;-140.64;100.00
7930;BME280;4010;42.698;23.124;2023-12-29T07:28:43;118349.16;;;-140.64;100.00
7930;BME280;4010;42.698;23.124;2023-12-29T07:31:10;118349.16;;;-140.64;100.00
7930;BME280;4010;42.698;23.124;2023-12-29T07:33:39;118349.16;;;-140.64;100.00
7930;BME280;4010;42.698;23.124;2023-12-29T07:36:06;118349.16;;;-140.64;100.00
7930;BME280;4010;42.698;23.124;2023-12-29T07:38:32;118349.16;;;-140.64;100.00
7930;BME280;4010;42.698;23.124;2023-12-29T07:41:00;118349.16;;;-140.64;99.17
7930;BME280;4010;42.698;23.124;2023-12-29T07:43:27;118349.16;;;-140.64;99.34
7930;BME280;4010;42.698;23.124;2023-12-29T07:45:54;118349.16;;;-140.64;98.34
7930;BME280;4010;42.698;23.124;2023-12-29T07:48:20;118349.16;;;-140.64;97.60
7930;BME280;4010;42.698;23.124;2023-12-29T07:50:49;118349.16;;;-140.64;95.58
7930;BME280;4010;42.698;23.124;2023-12-29T07:53:16;118349.16;;;-140.64;93.78
7930;BME280;4010;42.698;23.124;2023-12-29T07:55:44;118349.16;;;-140.64;93.49
7930;BME280;4010;42.698;23.124;2023-12-29T07:58:12;118349.16;;;-140.64;93.79
7930;BME280;4010;42.698;23.124;2023-12-29T08:00:39;118349.16;;;-140.64;93.20
7930;BME280;4010;42.698;23.124;2023-12-29T08:03:05;118349.16;;;-140.64;92.06
7930;BME280;4010;42.698;23.124;2023-12-29T08:05:32;118349.16;;;-140.64;91.56
7930;BME280;4010;42.698;23.124;2023-12-29T08:08:01;118349.16;;;-140.64;91.43
7930;BME280;4010;42.698;23.124;2023-12-29T08:10:28;118349.16;;;-140.64;92.29
7930;BME280;4010;42.698;23.124;2023-12-29T08:12:54;118349.16;;;-140.64;92.15
7930;BME280;4010;42.698;23.124;2023-12-29T08:15:21;118349.16;;;-140.64;91.26
7930;BME280;4010;42.698;23.124;2023-12-29T08:17:48;118349.16;;;-140.64;91.23
7930;BME280;4010;42.698;23.124;2023-12-29T08:20:15;118349.16;;;-140.64;89.68
7930;BME280;4010;42.698;23.124;2023-12-29T08:22:41;118349.16;;;-140.64;88.51
7930;BME280;4010;42.698;23.124;2023-12-29T08:25:09;118349.16;;;-140.64;88.25
7930;BME280;4010;42.698;23.124;2023-12-29T08:27:36;118349.16;;;-140.64;88.06
7930;BME280;4010;42.698;23.124;2023-12-29T08:30:04;118349.16;;;-140.64;87.83
7930;BME280;4010;42.698;23.124;2023-12-29T08:32:31;118349.16;;;-140.64;86.99
7930;BME280;4010;42.698;23.124;2023-12-29T08:34:58;118349.16;;;-140.64;86.71
7930;BME280;4010;42.698;23.124;2023-12-29T08:37:25;118349.16;;;-140.64;87.18
7930;BME280;4010;42.698;23.124;2023-12-29T08:39:52;118349.16;;;-140.64;85.61
7930;BME280;4010;42.698;23.124;2023-12-29T08:42:21;118349.16;;;-140.64;85.86
7930;BME280;4010;42.698;23.124;2023-12-29T08:44:48;118349.16;;;-140.64;84.13
7930;BME280;4010;42.698;23.124;2023-12-29T08:47:15;118349.16;;;-140.64;83.95
7930;BME280;4010;42.698;23.124;2023-12-29T08:49:42;118349.16;;;-140.64;83.12
7930;BME280;4010;42.698;23.124;2023-12-29T08:52:08;118349.16;;;-140.64;82.74
7930;BME280;4010;42.698;23.124;2023-12-29T08:54:35;118349.16;;;-140.64;82.69
7930;BME280;4010;42.698;23.124;2023-12-29T08:57:03;118349.16;;;-140.64;81.58
7930;BME280;4010;42.698;23.124;2023-12-29T08:59:31;118349.16;;;-140.64;81.03
7930;BME280;4010;42.698;23.124;2023-12-29T09:01:58;118349.16;;;-140.64;80.85
7930;BME280;4010;42.698;23.124;2023-12-29T09:04:25;118349.16;;;-140.64;80.81
7930;BME280;4010;42.698;23.124;2023-12-29T09:06:52;118349.16;;;-140.64;80.59
7930;BME280;4010;42.698;23.124;2023-12-29T09:09:19;118349.16;;;-140.64;80.53
7930;BME280;4010;42.698;23.124;2023-12-29T09:11:46;118349.16;;;-140.64;80.69
7930;BME280;4010;42.698;23.124;2023-12-29T09:14:13;118349.16;;;-140.64;81.46
7930;BME280;4010;42.698;23.124;2023-12-29T09:16:41;118349.16;;;-140.64;80.16
7930;BME280;4010;42.698;23.124;2023-12-29T09:19:08;118349.16;;;-140.64;78.75
7930;BME280;4010;42.698;23.124;2023-12-29T09:21:34;118349.16;;;-140.64;77.71
7930;BME280;4010;42.698;23.124;2023-12-29T09:24:01;118349.16;;;-140.64;76.60
7930;BME280;4010;42.698;23.124;2023-12-29T09:26:28;118349.16;;;-140.64;75.23
7930;BME280;4010;42.698;23.124;2023-12-29T09:28:54;118349.16;;;-140.64;74.23
7930;BME280;4010;42.698;23.124;2023-12-29T09:31:21;118349.16;;;-140.64;73.35
7930;BME280;4010;42.698;23.124;2023-12-29T09:33:49;118349.16;;;-140.64;74.18
7930;BME280;4010;42.698;23.124;2023-12-29T09:36:16;118349.16;;;-140.64;73.83
7930;BME280;4010;42.698;23.124;2023-12-29T09:38:42;118349.16;;;-140.64;73.24
7930;BME280;4010;42.698;23.124;2023-12-29T09:41:14;118349.16;;;-140.64;72.22
7930;BME280;4010;42.698;23.124;2023-12-29T09:43:41;118349.16;;;-140.64;72.47
7930;BME280;4010;42.698;23.124;2023-12-29T09:46:08;118349.16;;;-140.64;71.24
7930;BME280;4010;42.698;23.124;2023-12-29T09:48:36;118349.16;;;-140.64;70.74
7930;BME280;4010;42.698;23.124;2023-12-29T09:51:05;118349.16;;;-140.64;70.44
7930;BME280;4010;42.698;23.124;2023-12-29T09:53:34;118349.16;;;-140.64;70.15
7930;BME280;4010;42.698;23.124;2023-12-29T09:56:03;118349.16;;;-140.64;70.43
7930;BME280;4010;42.698;23.124;2023-12-29T09:58:32;118349.16;;;-140.64;71.16
7930;BME280;4010;42.698;23.124;2023-12-29T10:01:01;118349.16;;;-140.64;71.33
7930;BME280;4010;42.698;23.124;2023-12-29T10:03:28;118349.16;;;-140.64;70.11
7930;BME280;4010;42.698;23.124;2023-12-29T10:05:56;118349.16;;;-140.64;70.37
7930;BME280;4010;42.698;23.124;2023-12-29T10:08:27;118349.16;;;-140.64;70.52
7930;BME280;4010;42.698;23.124;2023-12-29T10:10:55;118349.16;;;-140.64;69.47
7930;BME280;4010;42.698;23.124;2023-12-29T10:13:24;118349.16;;;-140.64;67.39
7930;BME280;4010;42.698;23.124;2023-12-29T10:15:56;118349.16;;;-140.64;67.66
7930;BME280;4010;42.698;23.124;2023-12-29T10:18:30;118349.16;;;-140.64;66.79
7930;BME280;4010;42.698;23.124;2023-12-29T10:21:01;118349.16;;;-140.64;64.92
7930;BME280;4010;42.698;23.124;2023-12-29T10:23:38;118349.16;;;-140.64;64.08
7930;BME280;4010;42.698;23.124;2023-12-29T10:26:07;118349.16;;;-140.64;61.86
7930;BME280;4010;42.698;23.124;2023-12-29T10:28:36;118349.16;;;-140.64;59.65
7930;BME280;4010;42.698;23.124;2023-12-29T10:31:04;118349.16;;;-140.64;55.88
7930;BME280;4010;42.698;23.124;2023-12-29T10:33:31;118349.16;;;-140.64;52.39
7930;BME280;4010;42.698;23.124;2023-12-29T10:36:00;118349.16;;;-140.64;49.75
7930;BME280;4010;42.698;23.124;2023-12-29T10:38:28;118349.16;;;-140.64;49.12
7930;BME280;4010;42.698;23.124;2023-12-29T10:41:10;118349.16;;;-140.64;46.11
7930;BME280;4010;42.698;23.124;2023-12-29T10:43:37;118349.16;;;-140.64;45.75
7930;BME280;4010;42.698;23.124;2023-12-29T10:46:06;118349.16;;;-140.64;45.58
7930;BME280;4010;42.698;23.124;2023-12-29T10:48:34;118349.16;;;-140.64;45.54
7930;BME280;4010;42.698;23.124;2023-12-29T10:51:01;118349.16;;;-140.64;45.76
7930;BME280;4010;42.698;23.124;2023-12-29T10:53:29;118349.16;;;-140.64;52.87
7930;BME280;4010;42.698;23.124;2023-12-29T10:55:56;118349.16;;;-140.64;56.13
7930;BME280;4010;42.698;23.124;2023-12-29T10:58:25;118349.16;;;-140.64;53.70
7930;BME280;4010;42.698;23.124;2023-12-29T11:00:54;118349.16;;;-140.64;56.62
7930;BME280;4010;42.698;23.124;2023-12-29T11:03:23;118349.16;;;-140.64;57.28
7930;BME280;4010;42.698;23.124;2023-12-29T11:05:50;118349.16;;;-140.64;56.73
7930;BME280;4010;42.698;23.124;2023-12-29T11:08:18;118349.16;;;-140.64;58.11
7930;BME280;4010;42.698;23.124;2023-12-29T11:10:45;118349.16;;;-140.64;59.14
7930;BME280;4010;42.698;23.124;2023-12-29T11:13:12;118349.16;;;-140.64;58.68
7930;BME280;4010;42.698;23.124;2023-12-29T11:15:44;118349.16;;;-140.64;61.45
7930;BME280;4010;42.698;23.124;2023-12-29T11:18:13;118349.16;;;-140.64;61.86
7930;BME280;4010;42.698;23.124;2023-12-29T11:20:41;118349.16;;;-140.64;61.62
7930;BME280;4010;42.698;23.124;2023-12-29T11:23:09;118349.16;;;-140.64;61.93
7930;BME280;4010;42.698;23.124;2023-12-29T11:25:39;118349.16;;;-140.64;60.79
7930;BME280;4010;42.698;23.124;2023-12-29T11:28:06;118349.16;;;-140.64;60.36
7930;BME280;4010;42.698;23.124;2023-12-29T11:30:35;118349.16;;;-140.64;58.05
7930;BME280;4010;42.698;23.124;2023-12-29T11:33:08;118349.16;;;-140.64;54.67
7930;BME280;4010;42.698;23.124;2023-12-29T11:35:39;118349.16;;;-140.64;56.41
7930;BME280;4010;42.698;23.124;2023-12-29T11:38:23;118349.16;;;-140.64;56.14
7930;BME280;4010;42.698;23.124;2023-12-29T11:40:59;118349.16;;;-140.64;53.34
7930;BME280;4010;42.698;23.124;2023-12-29T11:43:28;118349.16;;;-140.64;53.18
7930;BME280;4010;42.698;23.124;2023-12-29T11:45:55;118349.16;;;-140.64;54.28
7930;BME280;4010;42.698;23.124;2023-12-29T11:48:56;118349.16;;;-140.64;54.37
7930;BME280;4010;42.698;23.124;2023-12-29T11:51:33;118349.16;;;-140.64;54.10
7930;BME280;4010;42.698;23.124;2023-12-29T11:54:00;118349.16;;;-140.64;53.34
7930;BME280;4010;42.698;23.124;2023-12-29T11:56:31;118349.16;;;-140.64;53.57
7930;BME280;4010;42.698;23.124;2023-12-29T11:59:18;118349.16;;;-140.64;53.13
7930;BME280;4010;42.698;23.124;2023-12-29T12:01:47;118349.16;;;-140.64;53.73
7930;BME280;4010;42.698;23.124;2023-12-29T12:04:38;118349.16;;;-140.64;53.53
7930;BME280;4010;42.698;23.124;2023-12-29T12:07:06;118349.16;;;-140.64;53.98
7930;BME280;4010;42.698;23.124;2023-12-29T12:09:33;118349.16;;;-140.64;54.58
7930;BME280;4010;42.698;23.124;2023-12-29T12:12:00;118349.16;;;-140.64;52.74
7930;BME280;4010;42.698;23.124;2023-12-29T12:14:47;118349.16;;;-140.64;51.29
7930;BME280;4010;42.698;23.124;2023-12-29T12:17:31;118349.16;;;-140.64;51.01
7930;BME280;4010;42.698;23.124;2023-12-29T12:20:02;118349.16;;;-140.64;50.05
7930;BME280;4010;42.698;23.124;2023-12-29T12:22:30;118349.16;;;-140.64;50.88
7930;BME280;4010;42.698;23.124;2023-12-29T12:24:58;118349.16;;;-140.64;50.36
7930;BME280;4010;42.698;23.124;2023-12-29T12:27:25;118349.16;;;-140.64;49.80
7930;BME280;4010;42.698;23.124;2023-12-29T12:29:54;118349.16;;;-140.64;49.60
7930;BME280;4010;42.698;23.124;2023-12-29T12:32:23;118349.16;;;-140.64;48.64
7930;BME280;4010;42.698;23.124;2023-12-29T12:34:50;118349.16;;;-140.64;48.51
7930;BME280;4010;42.698;23.124;2023-12-29T12:37:22;118349.16;;;-140.64;46.83